Time;durP1;ratioP1;P1;durP2;ratioP2;P2;SDS_P1;SDS_P2;PMS_P1;PMS_P2;Temp;Humidity;BMP_temperature;BMP_pressure;BME280_temperature;BME280_humidity;BME280_pressure;Samples;Min_cycle;Max_cycle;Signal;HPM_P1;HPM_P2
2023/03/13 00:01:30;;;;;;;3.43;2.97;;;;;;;5.96;49.17;97229.25;4887719;29;20202;-81
2023/03/13 00:03:57;;;;;;;6.07;3.53;;;;;;;6.02;49.00;97240.25;4903973;29;20277;-81
2023/03/13 00:06:27;;;;;;;4.93;3.37;;;;;;;6.10;49.54;97238.31;4901340;29;20224;-78
2023/03/13 00:08:54;;;;;;;4.80;3.50;;;;;;;6.05;49.39;97244.47;4899725;29;20208;-79
2023/03/13 00:11:21;;;;;;;4.33;3.03;;;;;;;6.10;49.95;97243.47;4900219;29;20701;-76
2023/03/13 00:13:53;;;;;;;3.93;3.53;;;;;;;6.08;48.62;97234.94;4900246;29;20236;-80
2023/03/13 00:16:22;;;;;;;4.40;3.23;;;;;;;6.01;48.30;97243.72;4896487;29;20591;-77
2023/03/13 00:18:51;;;;;;;4.60;3.60;;;;;;;5.94;49.09;97241.31;4896451;29;20253;-78
2023/03/13 00:21:20;;;;;;;5.07;3.80;;;;;;;5.88;50.05;97236.31;4895701;29;20226;-75
2023/03/13 00:23:47;;;;;;;3.87;3.10;;;;;;;5.73;50.74;97237.50;4896978;29;20219;-81
2023/03/13 00:26:17;;;;;;;4.57;3.80;;;;;;;5.54;49.92;97249.09;4894359;29;20711;-75
2023/03/13 00:28:45;;;;;;;4.40;3.53;;;;;;;5.46;50.60;97243.28;4892433;29;20637;-77
2023/03/13 00:31:32;;;;;;;4.30;3.60;;;;;;;5.45;50.72;97246.72;4894293;29;20212;-74
2023/03/13 00:34:01;;;;;;;3.90;3.50;;;;;;;5.47;51.19;97247.53;4896000;29;20197;-75
2023/03/13 00:36:31;;;;;;;4.17;3.30;;;;;;;5.60;51.12;97243.81;4897493;29;20202;-76
2023/03/13 00:39:02;;;;;;;3.97;3.20;;;;;;;5.72;49.97;97240.97;4895722;29;20223;-76
2023/03/13 00:41:31;;;;;;;3.63;3.03;;;;;;;5.92;49.71;97236.22;4894526;29;20227;-75
2023/03/13 00:43:58;;;;;;;6.07;3.10;;;;;;;5.93;49.56;97230.19;4895121;29;20203;-75
2023/03/13 00:46:27;;;;;;;4.00;3.03;;;;;;;5.98;49.63;97236.06;4895111;29;20201;-75
2023/03/13 00:48:55;;;;;;;4.33;3.20;;;;;;;5.97;49.64;97236.94;4894229;29;20702;-74
2023/03/13 00:51:25;;;;;;;3.80;3.13;;;;;;;5.91;49.84;97234.53;4894611;29;20209;-78
2023/03/13 00:53:54;;;;;;;3.93;3.07;;;;;;;5.84;50.12;97238.13;4894432;29;20291;-78
2023/03/13 00:56:21;;;;;;;3.90;3.10;;;;;;;5.73;49.44;97222.06;4893550;29;20199;-77
2023/03/13 00:58:49;;;;;;;3.20;2.90;;;;;;;5.70;49.69;97225.59;4893437;29;20223;-76
2023/03/13 01:01:20;;;;;;;4.83;3.33;;;;;;;5.68;50.36;97235.06;4891895;29;20191;-81
2023/03/13 01:03:53;;;;;;;4.77;3.70;;;;;;;5.54;50.01;97228.53;4893010;29;20207;-81
2023/03/13 01:06:22;;;;;;;3.10;2.80;;;;;;;5.41;50.54;97238.25;4893411;29;20237;-84
2023/03/13 01:08:50;;;;;;;3.73;2.70;;;;;;;5.48;50.54;97238.97;4894449;29;20345;-74
2023/03/13 01:11:25;;;;;;;5.37;3.00;;;;;;;5.45;50.87;97245.00;4910826;29;20211;-76
2023/03/13 01:13:58;;;;;;;2.93;2.53;;;;;;;5.43;51.18;97240.78;4894397;29;20239;-73
2023/03/13 01:16:27;;;;;;;4.70;2.70;;;;;;;5.53;51.49;97235.41;4912039;29;20611;-77
2023/03/13 01:18:58;;;;;;;3.40;2.63;;;;;;;5.51;50.73;97244.88;4911954;29;20251;-73
2023/03/13 01:21:26;;;;;;;3.87;3.10;;;;;;;5.56;51.27;97252.47;4894903;29;20189;-74
2023/03/13 01:23:55;;;;;;;3.97;3.10;;;;;;;5.57;50.75;97249.00;4894913;29;20275;-76
2023/03/13 01:26:23;;;;;;;3.30;3.00;;;;;;;5.53;51.37;97240.53;4894403;29;20195;-76
2023/03/13 01:28:50;;;;;;;5.90;3.10;;;;;;;5.56;52.42;97247.34;4911874;29;20197;-74
2023/03/13 01:31:22;;;;;;;3.73;3.13;;;;;;;5.63;51.35;97254.84;4911557;29;20229;-77
2023/03/13 01:33:53;;;;;;;4.60;3.60;;;;;;;5.66;52.07;97259.09;4911488;29;20245;-81
2023/03/13 01:36:20;;;;;;;8.23;5.43;;;;;;;5.38;52.68;97242.63;4911545;29;20736;-80
2023/03/13 01:38:49;;;;;;;7.37;5.37;;;;;;;5.15;52.90;97237.97;4894606;29;20191;-77
2023/03/13 01:41:17;;;;;;;8.33;4.57;;;;;;;5.19;53.17;97257.56;4912084;29;20192;-75
2023/03/13 01:43:45;;;;;;;7.07;5.20;;;;;;;5.10;54.24;97257.75;4911119;29;20202;-77
2023/03/13 01:46:16;;;;;;;8.13;5.73;;;;;;;5.19;54.64;97285.81;4894728;29;20194;-79
2023/03/13 01:49:22;;;;;;;8.80;5.40;;;;;;;4.70;54.91;97278.22;4910623;29;20202;-79
2023/03/13 01:52:27;;;;;;;8.13;4.90;;;;;;;4.94;55.08;97285.47;4910414;29;20199;-80
2023/03/13 01:55:26;;;;;;;5.27;4.23;;;;;;;4.44;55.48;97292.41;4898829;29;20279;-75
2023/03/13 01:57:54;;;;;;;5.67;4.47;;;;;;;4.38;56.35;97283.09;4914594;29;20724;-81
2023/03/13 02:00:25;;;;;;;6.37;4.60;;;;;;;4.69;55.86;97296.22;4898745;29;20203;-78
2023/03/13 02:02:56;;;;;;;5.30;4.73;;;;;;;4.72;55.80;97307.25;4917165;29;20270;-79
2023/03/13 02:05:26;;;;;;;6.27;4.30;;;;;;;4.43;56.42;97294.09;4894877;29;20263;-77
2023/03/13 02:08:07;;;;;;;15.93;4.50;;;;;;;4.26;56.60;97303.81;4912298;29;20200;-79
2023/03/13 02:10:41;;;;;;;4.83;3.70;;;;;;;4.15;56.92;97313.41;4911751;29;20776;-77
2023/03/13 02:13:13;;;;;;;5.53;4.10;;;;;;;4.00;57.45;97296.56;4895288;29;20265;-81
2023/03/13 02:15:40;;;;;;;5.33;4.27;;;;;;;4.36;56.56;97301.94;4911330;29;20976;-76
2023/03/13 02:18:08;;;;;;;6.73;4.10;;;;;;;4.48;55.86;97317.97;4895329;29;20191;-78
2023/03/13 02:20:38;;;;;;;4.60;4.00;;;;;;;4.37;56.58;97319.03;4912898;29;20202;-76
2023/03/13 02:23:18;;;;;;;6.57;4.43;;;;;;;4.34;57.09;97319.06;4895611;29;20567;-77
2023/03/13 02:25:50;;;;;;;4.10;3.70;;;;;;;3.93;57.12;97327.44;4894428;29;20225;-75
2023/03/13 02:28:32;;;;;;;6.83;3.83;;;;;;;3.89;56.91;97328.34;4910693;29;20222;-81
2023/03/13 02:31:02;;;;;;;4.50;3.37;;;;;;;3.83;57.02;97323.31;4894934;29;20667;-75
2023/03/13 02:33:41;;;;;;;4.70;2.97;;;;;;;3.86;57.62;97330.94;4896324;29;20674;-80
2023/03/13 02:36:13;;;;;;;3.97;3.33;;;;;;;3.98;56.66;97336.72;4894617;29;20607;-78
2023/03/13 02:38:48;;;;;;;4.30;3.37;;;;;;;4.09;56.41;97339.13;4896350;29;20221;-76
2023/03/13 02:41:18;;;;;;;3.40;3.03;;;;;;;3.90;56.96;97330.03;4895967;29;20247;-77
2023/03/13 02:43:45;;;;;;;4.13;3.13;;;;;;;4.01;57.44;97343.53;4893824;29;20192;-79
2023/03/13 02:46:18;;;;;;;6.07;4.13;;;;;;;3.98;57.38;97341.00;4911098;29;20289;-79
2023/03/13 02:48:50;;;;;;;5.87;3.43;;;;;;;3.87;57.83;97345.44;4893368;29;20186;-78
2023/03/13 02:51:39;;;;;;;6.00;3.80;;;;;;;4.00;57.77;97352.06;4894179;29;20237;-74
2023/03/13 02:54:20;;;;;;;5.57;4.70;;;;;;;3.90;58.83;97351.38;4893649;29;20763;-76
2023/03/13 02:56:51;;;;;;;5.80;4.90;;;;;;;3.79;58.71;97329.34;4893826;29;20289;-80
2023/03/13 02:59:17;;;;;;;5.73;4.27;;;;;;;3.94;58.02;97344.47;4912087;29;20207;-75
2023/03/13 03:01:46;;;;;;;6.43;4.97;;;;;;;3.96;57.97;97368.34;4913474;29;20203;-75
2023/03/13 03:04:13;;;;;;;6.27;4.87;;;;;;;3.87;58.58;97350.56;4911535;29;20649;-74
2023/03/13 03:06:39;;;;;;;6.07;4.30;;;;;;;4.00;58.47;97365.72;4913670;29;20199;-79
2023/03/13 03:09:07;;;;;;;6.20;4.30;;;;;;;3.85;58.61;97349.75;4883861;29;20211;-73
2023/03/13 03:11:37;;;;;;;5.63;4.57;;;;;;;3.87;58.52;97369.34;4917486;29;20213;-83
2023/03/13 03:14:10;;;;;;;4.63;3.70;;;;;;;3.65;58.48;97378.19;4907969;29;20271;-77
2023/03/13 03:16:42;;;;;;;4.60;3.30;;;;;;;3.29;59.21;97376.97;4911090;29;20547;-76
2023/03/13 03:19:10;;;;;;;4.13;3.37;;;;;;;3.34;60.06;97373.50;4923098;29;20674;-80
2023/03/13 03:21:37;;;;;;;5.13;3.97;;;;;;;3.33;60.02;97380.31;4913261;29;20278;-78
2023/03/13 03:24:04;;;;;;;4.33;3.57;;;;;;;3.51;59.73;97384.34;4920463;29;20231;-80
2023/03/13 03:26:31;;;;;;;7.20;4.20;;;;;;;3.61;58.94;97388.47;4917615;29;20266;-83
2023/03/13 03:28:58;;;;;;;4.00;3.37;;;;;;;3.64;59.13;97406.38;4896768;29;20208;-78
2023/03/13 03:31:26;;;;;;;5.10;4.13;;;;;;;3.64;59.79;97406.38;4899950;29;20211;-77
2023/03/13 03:33:56;;;;;;;6.23;4.40;;;;;;;3.69;59.51;97417.44;4917044;29;20245;-82
2023/03/13 03:36:23;;;;;;;6.57;4.03;;;;;;;3.61;58.83;97416.66;4903256;29;20274;-80
2023/03/13 03:38:51;;;;;;;6.60;4.30;;;;;;;3.52;59.12;97421.91;4904927;29;20268;-78
2023/03/13 03:41:22;;;;;;;12.27;5.03;;;;;;;3.46;59.68;97406.63;4903101;29;20201;-81
2023/03/13 03:43:50;;;;;;;8.63;4.07;;;;;;;3.30;59.97;97422.13;4901888;29;20183;-77
2023/03/13 03:46:21;;;;;;;5.07;4.37;;;;;;;3.19;59.70;97407.78;4900451;29;20289;-83
2023/03/13 03:48:48;;;;;;;6.73;4.63;;;;;;;3.39;59.55;97430.56;4896727;29;20194;-79
2023/03/13 03:51:15;;;;;;;6.13;4.77;;;;;;;3.08;60.30;97420.69;4914189;29;20765;-82
2023/03/13 03:53:45;;;;;;;6.13;4.03;;;;;;;2.88;60.49;97430.28;4896621;29;20653;-83
2023/03/13 03:56:12;;;;;;;5.93;4.03;;;;;;;2.72;61.14;97430.44;4896822;29;20203;-82
2023/03/13 03:58:45;;;;;;;5.80;4.10;;;;;;;2.53;62.20;97439.09;4897957;29;20681;-84
2023/03/13 04:01:44;;;;;;;4.57;3.77;;;;;;;2.55;62.45;97432.28;4882734;29;20198;-81
2023/03/13 04:04:14;;;;;;;7.83;4.90;;;;;;;2.72;61.58;97441.47;4899582;29;20190;-74
2023/03/13 04:06:44;;;;;;;6.13;4.23;;;;;;;2.46;62.50;97433.19;4916312;29;20191;-73
2023/03/13 04:09:12;;;;;;;5.97;4.67;;;;;;;2.25;63.06;97441.00;4918016;29;20190;-76
2023/03/13 04:11:39;;;;;;;8.50;4.80;;;;;;;2.26;64.33;97452.94;4915261;29;20187;-75
2023/03/13 04:14:08;;;;;;;7.13;5.33;;;;;;;2.20;64.45;97432.53;4902644;29;20317;-82
2023/03/13 04:16:35;;;;;;;6.40;4.47;;;;;;;2.10;63.99;97448.78;4902312;29;20199;-79
2023/03/13 04:19:02;;;;;;;4.63;4.00;;;;;;;2.01;64.16;97465.00;4899932;29;20248;-84
2023/03/13 04:21:29;;;;;;;6.70;4.43;;;;;;;1.82;64.96;97447.22;4900116;29;20234;-82
2023/03/13 04:24:03;;;;;;;6.50;4.60;;;;;;;1.95;65.41;97469.31;4901398;29;20685;-82
2023/03/13 04:26:32;;;;;;;5.90;3.83;;;;;;;1.73;65.67;97476.22;4901402;29;20273;-77
2023/03/13 04:29:00;;;;;;;5.93;4.30;;;;;;;1.45;66.84;97461.84;4885686;29;20614;-78
2023/03/13 04:31:56;;;;;;;4.17;3.57;;;;;;;1.40;66.66;97482.28;4878753;29;20362;-79
2023/03/13 04:34:42;;;;;;;5.57;3.83;;;;;;;1.36;66.76;97485.69;4890404;29;20227;-74
2023/03/13 04:37:30;;;;;;;6.77;4.30;;;;;;;1.21;68.07;97483.19;4888939;29;20231;-74
2023/03/13 04:40:12;;;;;;;5.83;3.87;;;;;;;1.16;67.94;97481.50;4897106;29;20198;-80
2023/03/13 04:43:08;;;;;;;5.87;4.43;;;;;;;1.16;68.37;97495.09;4890418;29;20199;-84
2023/03/13 04:45:35;;;;;;;5.70;3.93;;;;;;;1.13;68.02;97490.03;4892877;29;20199;-85
2023/03/13 04:48:22;;;;;;;4.97;4.00;;;;;;;1.01;68.55;97476.44;4886021;29;20219;-82
2023/03/13 04:51:00;;;;;;;6.73;4.00;;;;;;;1.17;68.00;97508.72;4907677;29;20687;-81
2023/03/13 04:53:50;;;;;;;6.13;4.33;;;;;;;1.26;68.24;97509.53;4887573;29;20238;-85
2023/03/13 04:56:27;;;;;;;5.73;4.53;;;;;;;1.38;67.42;97517.16;4894691;29;20197;-78
2023/03/13 04:59:27;;;;;;;8.27;4.50;;;;;;;1.24;67.04;97475.53;4917763;29;20187;-82
2023/03/13 05:02:19;;;;;;;8.50;6.00;;;;;;;1.58;66.74;97523.06;4873276;29;20637;-80
2023/03/13 05:05:21;;;;;;;8.17;5.70;;;;;;;1.88;66.04;97514.44;4897765;29;20205;-75
2023/03/13 05:08:09;;;;;;;8.17;5.57;;;;;;;2.05;64.89;97527.13;4893489;29;20675;-79
2023/03/13 05:10:56;;;;;;;9.73;5.97;;;;;;;2.00;65.10;97522.03;4894059;29;20646;-85
2023/03/13 05:13:29;;;;;;;7.77;6.00;;;;;;;2.16;64.82;97525.38;4894817;29;20359;-85
2023/03/13 05:16:17;;;;;;;6.80;5.30;;;;;;;2.24;64.61;97532.16;4884170;29;20218;-84
2023/03/13 05:19:08;;;;;;;7.63;4.70;;;;;;;2.29;64.52;97525.28;4876447;29;20191;-77
2023/03/13 05:21:54;;;;;;;8.60;5.03;;;;;;;2.40;63.99;97507.34;4896350;29;20250;-78
2023/03/13 05:24:32;;;;;;;11.20;5.83;;;;;;;2.57;64.22;97540.47;4901641;29;20206;-77
2023/03/13 05:27:29;;;;;;;8.83;5.90;;;;;;;2.77;63.07;97536.06;4867775;29;20207;-81
2023/03/13 05:30:14;;;;;;;8.80;5.73;;;;;;;2.71;63.25;97539.50;4883106;29;20195;-84
2023/03/13 05:33:02;;;;;;;7.17;5.43;;;;;;;2.84;63.14;97540.28;4879746;29;20317;-83
2023/03/13 05:35:58;;;;;;;11.23;5.23;;;;;;;2.81;63.04;97533.47;4872903;29;20221;-81
2023/03/13 05:38:36;;;;;;;10.30;6.67;;;;;;;2.67;63.13;97530.16;4877800;29;20207;-83
2023/03/13 05:41:21;;;;;;;8.00;5.77;;;;;;;2.75;63.48;97548.84;4880957;29;20198;-84
2023/03/13 05:44:16;;;;;;;10.80;7.47;;;;;;;2.74;63.88;97539.47;4876214;29;20207;-81
2023/03/13 05:47:00;;;;;;;10.20;6.03;;;;;;;2.99;63.45;97528.19;4877100;29;20266;-86
2023/03/13 05:49:48;;;;;;;8.60;5.80;;;;;;;3.23;63.00;97538.25;4892875;29;20187;-80
2023/03/13 05:52:17;;;;;;;7.97;6.30;;;;;;;3.17;62.78;97540.00;4894497;29;20188;-83
2023/03/13 05:55:03;;;;;;;12.13;7.70;;;;;;;3.07;64.01;97523.88;4895812;29;20671;-86
2023/03/13 05:57:59;;;;;;;12.07;8.37;;;;;;;3.19;63.30;97549.34;4875782;29;20275;-84
2023/03/13 06:00:43;;;;;;;13.73;10.03;;;;;;;3.44;63.21;97547.44;4875588;29;20726;-82
2023/03/13 06:03:28;;;;;;;12.17;8.93;;;;;;;3.66;62.39;97558.28;4891497;29;20199;-86
2023/03/13 06:05:58;;;;;;;16.60;10.10;;;;;;;3.62;62.62;97554.91;4875559;29;20191;-83
2023/03/13 06:08:39;;;;;;;14.70;10.40;;;;;;;3.79;62.31;97570.09;4861424;29;20589;-81
2023/03/13 06:11:06;;;;;;;13.53;9.23;;;;;;;3.80;61.91;97564.09;4892223;29;20234;-83
2023/03/13 06:13:33;;;;;;;15.43;8.77;;;;;;;3.96;61.68;97563.06;4875411;29;20601;-84
2023/03/13 06:16:16;;;;;;;11.67;8.57;;;;;;;4.10;61.61;97572.28;4874811;29;20282;-82
2023/03/13 06:18:45;;;;;;;9.10;6.53;;;;;;;4.36;60.73;97561.72;4875752;29;20267;-83
2023/03/13 06:21:12;;;;;;;9.53;6.33;;;;;;;4.54;60.94;97560.59;4875030;29;20288;-82
2023/03/13 06:23:41;;;;;;;8.73;5.97;;;;;;;4.77;60.38;97564.56;4891777;29;20224;-80
2023/03/13 06:26:07;;;;;;;6.63;4.47;;;;;;;4.54;59.88;97564.03;4891543;29;20247;-77
2023/03/13 06:28:34;;;;;;;5.80;4.60;;;;;;;4.53;59.77;97564.91;4891762;29;20958;-77
2023/03/13 06:31:03;;;;;;;6.20;4.80;;;;;;;4.73;59.56;97575.72;4891845;29;20196;-82
2023/03/13 06:33:31;;;;;;;7.13;4.07;;;;;;;4.64;60.04;97572.44;4891377;29;20232;-84
2023/03/13 06:36:00;;;;;;;5.83;4.00;;;;;;;5.03;58.89;97583.84;4892336;29;20200;-80
2023/03/13 06:38:27;;;;;;;4.87;3.60;;;;;;;5.06;58.46;97576.94;4891608;29;20187;-80
2023/03/13 06:40:54;;;;;;;6.77;3.77;;;;;;;5.08;58.26;97580.34;4895212;29;20192;-84
2023/03/13 06:43:21;;;;;;;5.83;3.80;;;;;;;5.19;58.09;97586.16;4896067;29;20697;-77
2023/03/13 06:45:49;;;;;;;5.03;3.63;;;;;;;5.17;58.19;97579.34;4896548;29;20198;-85
2023/03/13 06:48:16;;;;;;;5.57;4.10;;;;;;;5.32;58.22;97563.66;4896678;29;20197;-86
2023/03/13 06:50:43;;;;;;;5.63;4.37;;;;;;;5.69;57.17;97577.56;4899114;29;20192;-84
2023/03/13 06:53:16;;;;;;;5.33;3.90;;;;;;;5.89;56.61;97570.41;4887249;29;20672;-80
2023/03/13 06:55:43;;;;;;;6.23;4.50;;;;;;;5.93;56.12;97554.03;4906901;29;20232;-82
2023/03/13 06:58:10;;;;;;;8.40;5.00;;;;;;;6.29;55.78;97584.16;4908175;29;20784;-82
2023/03/13 07:00:57;;;;;;;5.87;4.00;;;;;;;6.41;54.72;97568.47;4897926;29;20202;-83
2023/03/13 07:03:24;;;;;;;5.93;4.23;;;;;;;6.55;54.49;97558.72;4897834;29;20190;-81
2023/03/13 07:05:56;;;;;;;7.77;4.67;;;;;;;6.98;53.72;97571.50;4897789;29;20206;-84
2023/03/13 07:08:24;;;;;;;8.20;4.70;;;;;;;7.20;52.90;97571.81;4895836;29;20265;-82
2023/03/13 07:10:52;;;;;;;9.17;4.70;;;;;;;7.36;52.10;97576.56;4897063;29;20201;-83
2023/03/13 07:13:20;;;;;;;5.20;4.27;;;;;;;7.47;52.29;97547.97;4881979;29;20265;-82
2023/03/13 07:15:48;;;;;;;7.77;4.23;;;;;;;7.44;51.40;97562.66;4878682;29;20199;-82
2023/03/13 07:18:15;;;;;;;6.97;4.00;;;;;;;7.42;51.74;97564.44;4896389;29;20210;-84
2023/03/13 07:20:42;;;;;;;6.33;4.63;;;;;;;7.56;51.79;97578.66;4897419;29;20669;-79
2023/03/13 07:23:09;;;;;;;9.07;5.77;;;;;;;7.61;52.30;97569.06;4896494;29;20562;-83
2023/03/13 07:25:36;;;;;;;5.90;4.67;;;;;;;7.67;50.92;97566.34;4894993;29;20576;-84
2023/03/13 07:28:03;;;;;;;7.67;6.13;;;;;;;7.78;50.44;97558.31;4896134;29;20286;-85
2023/03/13 07:30:30;;;;;;;7.70;6.90;;;;;;;8.08;50.48;97558.34;4897751;29;20361;-82
2023/03/13 07:32:58;;;;;;;8.67;4.90;;;;;;;8.26;49.67;97554.44;4903738;29;20218;-79
2023/03/13 07:35:25;;;;;;;9.37;4.90;;;;;;;8.63;48.94;97567.97;4897982;29;20730;-84
2023/03/13 07:37:52;;;;;;;6.43;4.77;;;;;;;8.63;47.92;97573.13;4898907;29;20219;-84
2023/03/13 07:40:19;;;;;;;6.70;4.67;;;;;;;8.69;48.09;97575.53;4898551;29;20204;-83
2023/03/13 07:42:46;;;;;;;6.00;5.07;;;;;;;8.59;48.53;97565.53;4897038;29;20213;-85
2023/03/13 07:45:13;;;;;;;8.87;5.63;;;;;;;8.82;48.19;97583.75;4897065;29;20188;-81
2023/03/13 07:47:40;;;;;;;8.90;5.47;;;;;;;9.04;47.25;97584.78;4895009;29;20514;-77
2023/03/13 07:50:07;;;;;;;7.93;5.30;;;;;;;9.17;46.87;97574.94;4895072;29;20202;-82
2023/03/13 07:52:34;;;;;;;10.73;5.97;;;;;;;9.36;45.64;97551.00;4894642;29;20233;-80
2023/03/13 07:55:01;;;;;;;7.53;5.03;;;;;;;9.66;45.10;97560.34;4879108;29;20601;-86
2023/03/13 07:57:29;;;;;;;8.07;5.23;;;;;;;9.31;44.56;97539.13;4902465;29;20636;-79
2023/03/13 07:59:56;;;;;;;7.37;5.30;;;;;;;9.57;44.22;97567.56;4898923;29;20743;-87
2023/03/13 08:02:23;;;;;;;7.30;4.93;;;;;;;9.53;44.41;97546.13;4897233;29;20669;-86
2023/03/13 08:04:51;;;;;;;7.87;5.20;;;;;;;9.75;43.89;97549.69;4896482;29;20221;-82
2023/03/13 08:07:18;;;;;;;6.97;5.20;;;;;;;9.75;44.69;97557.44;4896292;29;20192;-81
2023/03/13 08:09:45;;;;;;;6.73;4.63;;;;;;;9.87;43.46;97563.09;4896536;29;20203;-84
2023/03/13 08:12:12;;;;;;;8.07;5.60;;;;;;;9.93;43.41;97552.53;4896548;29;20193;-84
2023/03/13 08:14:39;;;;;;;7.57;4.77;;;;;;;10.00;42.85;97559.16;4892925;29;20229;-85
2023/03/13 08:17:06;;;;;;;8.37;4.33;;;;;;;9.63;42.18;97557.84;4894171;29;20676;-81
2023/03/13 08:19:33;;;;;;;5.70;3.40;;;;;;;9.72;41.57;97554.97;4894345;29;20280;-85
2023/03/13 08:22:02;;;;;;;4.77;3.70;;;;;;;9.51;41.57;97523.81;4894890;29;20283;-84
2023/03/13 08:24:29;;;;;;;7.87;5.90;;;;;;;9.63;41.97;97544.06;4895760;29;20256;-79
2023/03/13 08:26:56;;;;;;;5.73;3.60;;;;;;;9.58;40.13;97492.50;4894024;29;20262;-81
2023/03/13 08:29:23;;;;;;;4.47;3.23;;;;;;;9.95;38.32;97524.88;4892859;29;20199;-78
2023/03/13 08:31:51;;;;;;;5.80;3.70;;;;;;;10.03;38.67;97522.84;4893443;29;20263;-83
2023/03/13 08:34:18;;;;;;;6.00;3.40;;;;;;;10.13;37.86;97511.28;4894084;29;20564;-86
2023/03/13 08:36:46;;;;;;;5.27;3.03;;;;;;;10.07;35.47;97499.41;4894291;29;20194;-81
2023/03/13 08:39:15;;;;;;;3.57;2.63;;;;;;;10.30;34.43;97532.22;4894219;29;20717;-81
2023/03/13 08:41:43;;;;;;;4.60;3.40;;;;;;;10.18;34.92;97530.09;4896473;29;20710;-85
2023/03/13 08:44:13;;;;;;;3.97;3.03;;;;;;;10.16;35.73;97524.94;4890158;29;20204;-77
2023/03/13 08:46:40;;;;;;;3.43;2.63;;;;;;;10.37;35.51;97528.50;4892496;29;20679;-82
2023/03/13 08:49:08;;;;;;;2.87;1.90;;;;;;;10.21;31.75;97548.09;4880512;29;20291;-80
2023/03/13 08:51:36;;;;;;;4.70;1.80;;;;;;;9.83;29.94;97551.97;4893241;29;20504;-78
2023/03/13 08:54:03;;;;;;;1.90;1.73;;;;;;;9.95;27.94;97550.72;4894348;29;20303;-84
2023/03/13 08:56:31;;;;;;;2.07;1.67;;;;;;;10.14;28.53;97537.09;4893944;29;20192;-82
2023/03/13 08:59:00;;;;;;;1.33;1.23;;;;;;;10.28;24.40;97539.22;4895310;29;20554;-85
2023/03/13 09:01:30;;;;;;;2.10;1.60;;;;;;;10.22;25.66;97524.72;4894891;29;20200;-77
2023/03/13 09:03:59;;;;;;;2.87;1.70;;;;;;;10.56;25.90;97552.81;4893275;29;20191;-79
2023/03/13 09:06:32;;;;;;;1.43;1.20;;;;;;;10.74;25.57;97548.69;4893302;29;20196;-85
2023/03/13 09:08:59;;;;;;;5.43;4.07;;;;;;;10.56;26.68;97556.25;4892592;29;20209;-79
2023/03/13 09:11:26;;;;;;;4.70;2.03;;;;;;;10.62;27.85;97532.72;4876405;29;20195;-84
2023/03/13 09:13:54;;;;;;;7.10;2.33;;;;;;;10.78;28.03;97535.53;4892135;29;20699;-84
2023/03/13 09:16:23;;;;;;;1.60;1.50;;;;;;;10.69;27.00;97548.00;4892967;29;20739;-78
2023/03/13 09:18:51;;;;;;;1.67;1.43;;;;;;;10.58;25.61;97535.47;4893790;29;20192;-78
2023/03/13 09:21:21;;;;;;;4.53;2.47;;;;;;;10.49;25.35;97530.63;4877387;29;20185;-76
2023/03/13 09:23:49;;;;;;;2.80;2.40;;;;;;;10.42;25.83;97521.41;4892829;29;20220;-85
2023/03/13 09:26:18;;;;;;;3.60;2.90;;;;;;;10.65;26.20;97531.75;4891908;29;20189;-81
2023/03/13 09:28:50;;;;;;;3.27;1.97;;;;;;;10.81;27.86;97529.41;4878237;29;20582;-83
2023/03/13 09:31:22;;;;;;;7.03;1.83;;;;;;;10.83;28.79;97517.25;4896096;29;20212;-82
2023/03/13 09:33:50;;;;;;;4.93;3.50;;;;;;;10.99;28.96;97508.81;4893385;29;20198;-82
2023/03/13 09:36:18;;;;;;;5.90;2.00;;;;;;;11.18;29.04;97514.94;4876406;29;20257;-83
2023/03/13 09:38:53;;;;;;;3.80;2.07;;;;;;;11.54;29.08;97516.94;4892303;29;20301;-76
2023/03/13 09:41:35;;;;;;;2.50;2.10;;;;;;;11.59;29.10;97513.22;4895659;29;20202;-81
2023/03/13 09:44:25;;;;;;;3.03;2.00;;;;;;;11.05;29.54;97505.13;4894830;29;20201;-83
2023/03/13 09:46:53;;;;;;;3.83;2.00;;;;;;;10.93;29.95;97515.97;4888870;29;20196;-85
2023/03/13 09:50:00;;;;;;;3.13;2.57;;;;;;;11.36;29.45;97505.56;4877674;29;20238;-86
2023/03/13 09:52:35;;;;;;;2.47;2.20;;;;;;;11.20;29.30;97507.94;4889385;29;20225;-83
2023/03/13 09:55:08;;;;;;;3.17;2.10;;;;;;;10.84;29.48;97499.03;4875962;29;20242;-82
2023/03/13 09:57:44;;;;;;;4.93;2.30;;;;;;;10.88;28.97;97503.19;4893367;29;20236;-82
2023/03/13 10:00:14;;;;;;;2.00;1.60;;;;;;;10.45;29.61;97505.75;4893783;29;20198;-85
2023/03/13 10:02:52;;;;;;;2.20;1.80;;;;;;;10.81;29.59;97500.91;4895294;29;20267;-85
2023/03/13 10:05:24;;;;;;;8.60;3.60;;;;;;;11.05;29.08;97494.75;4878930;29;20194;-83
2023/03/13 10:07:58;;;;;;;1.50;1.40;;;;;;;11.34;28.89;97484.03;4900279;29;20199;-78
2023/03/13 10:10:39;;;;;;;2.13;1.90;;;;;;;11.64;27.83;97481.91;4896216;29;20216;-80
2023/03/13 10:13:32;;;;;;;2.90;1.50;;;;;;;11.63;28.18;97480.22;4893510;29;20273;-81
2023/03/13 10:16:03;;;;;;;2.53;1.50;;;;;;;11.60;27.45;97490.72;4890702;29;20233;-78
2023/03/13 10:18:31;;;;;;;3.57;2.00;;;;;;;11.65;28.35;97491.34;4892171;29;20237;-81
2023/03/13 10:21:11;;;;;;;3.27;1.70;;;;;;;11.67;28.77;97495.63;4884071;29;20291;-79
2023/03/13 10:23:58;;;;;;;2.20;1.80;;;;;;;11.69;28.12;97498.13;4892733;29;20190;-87
2023/03/13 10:26:33;;;;;;;3.63;2.03;;;;;;;11.93;28.66;97492.72;4894050;29;20202;-80
2023/03/13 10:29:32;;;;;;;2.93;2.20;;;;;;;11.91;28.31;97478.16;4894719;29;20238;-76
2023/03/13 10:32:01;;;;;;;4.93;2.40;;;;;;;12.06;27.84;97486.09;4879782;29;20290;-78
2023/03/13 10:34:53;;;;;;;2.80;2.20;;;;;;;12.11;27.55;97483.28;4895053;29;20613;-82
2023/03/13 10:37:26;;;;;;;4.43;1.90;;;;;;;11.94;28.35;97485.78;4894596;29;20197;-82
2023/03/13 10:39:53;;;;;;;4.20;3.13;;;;;;;11.84;28.78;97474.13;4896273;29;20230;-79
2023/03/13 10:42:27;;;;;;;2.37;1.80;;;;;;;11.59;28.76;97468.28;4894422;29;20665;-77
2023/03/13 10:44:57;;;;;;;6.73;3.87;;;;;;;11.46;29.16;97458.44;4895995;29;20192;-79
2023/03/13 10:47:25;;;;;;;2.33;1.97;;;;;;;11.80;28.98;97459.59;4897428;29;20227;-82
2023/03/13 10:49:56;;;;;;;2.63;2.23;;;;;;;11.81;29.48;97450.94;4894817;29;20210;-77
2023/03/13 10:52:29;;;;;;;1.70;1.60;;;;;;;11.35;29.09;97452.84;4899503;29;20218;-75
2023/03/13 10:55:03;;;;;;;3.20;2.10;;;;;;;11.05;29.24;97435.13;4893803;29;20305;-81
2023/03/13 10:57:37;;;;;;;2.77;1.97;;;;;;;11.43;29.41;97432.66;4892258;29;20224;-81
2023/03/13 11:00:33;;;;;;;3.20;2.17;;;;;;;11.34;28.92;97412.28;4893457;29;20553;-86
2023/03/13 11:03:04;;;;;;;2.87;2.00;;;;;;;11.50;29.43;97429.78;4892574;29;20224;-85
2023/03/13 11:05:42;;;;;;;2.73;1.90;;;;;;;11.31;29.65;97391.66;4893072;29;20262;-85
2023/03/13 11:08:35;;;;;;;2.30;2.10;;;;;;;11.30;29.11;97410.72;4891512;29;20239;-75
2023/03/13 11:11:17;;;;;;;3.00;2.40;;;;;;;11.45;29.02;97425.63;4892419;29;20255;-83
2023/03/13 11:13:45;;;;;;;2.37;2.10;;;;;;;11.43;29.20;97411.91;4890619;29;20239;-80
2023/03/13 11:16:20;;;;;;;2.53;2.17;;;;;;;11.46;29.07;97416.94;4890954;29;20315;-80
2023/03/13 11:19:14;;;;;;;3.27;2.53;;;;;;;11.76;28.63;97422.59;4891061;29;20202;-85
2023/03/13 11:22:12;;;;;;;2.67;2.30;;;;;;;12.04;28.81;97414.38;4893595;29;20286;-83
2023/03/13 11:24:45;;;;;;;2.77;1.60;;;;;;;11.92;28.69;97417.53;4891593;29;20703;-82
2023/03/13 11:27:40;;;;;;;4.40;2.70;;;;;;;12.00;29.04;97424.06;4896342;29;20203;-84
2023/03/13 11:30:35;;;;;;;2.30;2.10;;;;;;;11.92;29.46;97407.16;4897421;29;20192;-77
2023/03/13 11:33:36;;;;;;;3.10;2.40;;;;;;;12.09;29.17;97402.91;4876177;29;20199;-78
2023/03/13 11:36:24;;;;;;;4.87;1.87;;;;;;;11.92;29.64;97397.63;4896972;29;20663;-83
2023/03/13 11:39:04;;;;;;;4.53;2.30;;;;;;;11.70;30.09;97383.94;4896123;29;20193;-84
2023/03/13 11:41:49;;;;;;;4.20;2.23;;;;;;;11.95;29.38;97386.28;4893628;29;20202;-82
2023/03/13 11:44:26;;;;;;;4.27;2.30;;;;;;;12.16;28.68;97382.66;4894792;29;20261;-81
2023/03/13 11:47:08;;;;;;;3.37;2.33;;;;;;;12.21;29.16;97378.97;4894878;29;20197;-85
2023/03/13 11:50:13;;;;;;;3.27;2.10;;;;;;;12.09;29.94;97370.91;4895451;29;20685;-82
2023/03/13 11:53:08;;;;;;;5.73;2.33;;;;;;;12.10;29.78;97375.16;4876342;29;20209;-82
2023/03/13 11:55:36;;;;;;;2.93;2.30;;;;;;;12.34;29.62;97370.59;4862438;29;20264;-84
2023/03/13 11:58:19;;;;;;;3.00;2.53;;;;;;;12.08;30.25;97364.84;4895569;29;20200;-81
2023/03/13 12:01:13;;;;;;;3.93;2.13;;;;;;;12.28;30.15;97358.75;4895562;29;20770;-85
2023/03/13 12:04:14;;;;;;;2.93;1.93;;;;;;;12.33;29.99;97346.38;4879211;29;20684;-87
2023/03/13 12:07:01;;;;;;;3.93;2.10;;;;;;;12.44;29.95;97351.06;4896209;29;20193;-86
2023/03/13 12:09:40;;;;;;;3.90;2.07;;;;;;;12.56;29.75;97353.06;4894458;29;20274;-82
2023/03/13 12:12:26;;;;;;;4.83;2.57;;;;;;;12.88;29.61;97353.16;4899534;29;20716;-77